createdAt,value
2022-10-14T00:00:53.155Z,0
2022-10-14T00:06:15.976Z,0
2022-10-14T00:11:38.717Z,0
2022-10-14T00:17:01.179Z,0
2022-10-14T00:22:32.625Z,0
2022-10-14T00:27:54.831Z,0
2022-10-14T00:33:17.244Z,0
2022-10-14T00:38:39.828Z,0
2022-10-14T00:44:04.784Z,0
2022-10-14T00:49:31.128Z,0
2022-10-14T00:54:53.617Z,0
2022-10-14T01:05:44.015Z,0
2022-10-14T01:11:06.568Z,0
2022-10-14T01:16:31.911Z,0
2022-10-14T01:21:54.696Z,0
2022-10-14T01:27:17.666Z,0
2022-10-14T01:32:40.350Z,0
2022-10-14T01:38:02.965Z,0
2022-10-14T01:43:28.393Z,0
2022-10-14T01:48:53.446Z,0
2022-10-14T01:54:18.364Z,0
2022-10-14T01:59:40.951Z,0
2022-10-14T02:10:29.649Z,0
2022-10-14T02:15:52.361Z,0
2022-10-14T02:21:14.661Z,0
2022-10-14T02:26:37.234Z,0
2022-10-14T02:31:59.818Z,0
2022-10-14T02:37:22.826Z,0
2022-10-14T02:42:47.901Z,0
2022-10-14T02:53:42.700Z,0
2022-10-14T02:59:05.375Z,0
2022-10-14T03:04:27.897Z,0
2022-10-14T03:09:50.721Z,0
2022-10-14T03:15:13.596Z,0
2022-10-14T03:20:36.198Z,0
2022-10-14T03:26:19.908Z,0
2022-10-14T03:31:42.726Z,0
2022-10-14T03:37:05.288Z,0
2022-10-14T03:42:28.090Z,0
2022-10-14T03:48:35.936Z,0
2022-10-14T03:54:29.421Z,0
2022-10-14T03:59:52.779Z,0
2022-10-14T04:05:15.317Z,0
2022-10-14T04:10:39.890Z,0
2022-10-14T04:16:02.904Z,0
2022-10-14T04:21:25.419Z,0
2022-10-14T04:26:47.938Z,0
2022-10-14T04:32:10.704Z,0
2022-10-14T04:37:33.073Z,0
2022-10-14T04:42:55.772Z,0
2022-10-14T04:48:18.327Z,0
2022-10-14T04:53:40.736Z,0
2022-10-14T05:04:25.889Z,0
2022-10-14T05:09:55.572Z,0
2022-10-14T05:15:19.835Z,0
2022-10-14T05:20:43.759Z,0
2022-10-14T05:26:06.522Z,0
2022-10-14T05:31:29.263Z,0
2022-10-14T05:37:04.756Z,0
2022-10-14T05:42:27.304Z,0
2022-10-14T05:47:52.788Z,3
2022-10-14T05:53:15.712Z,8
2022-10-14T05:58:38.691Z,10
2022-10-14T06:04:01.806Z,15.6
2022-10-14T06:09:24.156Z,18.1
2022-10-14T06:14:46.884Z,17.7
2022-10-14T06:20:09.533Z,20.5
2022-10-14T06:25:32.218Z,28
2022-10-14T06:30:59.767Z,31.1
2022-10-14T06:36:28.334Z,41.2
2022-10-14T06:41:50.791Z,49
2022-10-14T06:47:13.298Z,52
2022-10-14T06:57:58.187Z,106.1
2022-10-14T07:03:28.171Z,112
2022-10-14T07:08:56.291Z,131.1
2022-10-14T07:14:19.069Z,153.8
2022-10-14T07:19:44.080Z,153.6
2022-10-14T07:25:06.549Z,122.4
2022-10-14T07:30:32.803Z,138.1
2022-10-14T07:35:58.115Z,159.4
2022-10-14T07:47:03.424Z,185.2
2022-10-14T07:52:29.458Z,180.9
2022-10-14T07:57:51.994Z,201.4
2022-10-14T08:03:17.948Z,207.1
2022-10-14T08:08:40.384Z,231.1
2022-10-14T08:14:02.967Z,271.2
2022-10-14T08:19:25.361Z,225.7
2022-10-14T08:24:56.463Z,169.2
2022-10-14T08:30:19.074Z,155
2022-10-14T08:35:41.977Z,157.5
2022-10-14T08:41:04.477Z,170.7
2022-10-14T08:51:49.538Z,176.3
2022-10-14T08:57:19.855Z,182
2022-10-14T09:02:42.436Z,196.8
2022-10-14T09:08:14.064Z,228.8
2022-10-14T09:13:36.455Z,228.5
2022-10-14T09:18:59.178Z,219
2022-10-14T09:24:21.651Z,227.8
2022-10-14T09:29:44.644Z,241.1
2022-10-14T09:35:07.238Z,249.6
2022-10-14T09:40:32.512Z,228.5
2022-10-14T09:45:56.311Z,188.9
2022-10-14T09:51:22.676Z,196.1
2022-10-14T09:56:47.245Z,206.9
2022-10-14T10:02:09.691Z,224.8
2022-10-14T10:07:31.942Z,253.4
2022-10-14T10:12:57.227Z,282.4
2022-10-14T10:18:19.794Z,281.4
2022-10-14T10:23:42.389Z,342.5
2022-10-14T10:29:05.127Z,331.4
2022-10-14T10:39:50.425Z,313.8
2022-10-14T10:45:12.925Z,262.8
2022-10-14T10:50:35.089Z,255.4
2022-10-14T10:56:01.019Z,240.6
2022-10-14T11:01:26.279Z,213.9
2022-10-14T11:06:49.108Z,193.6
2022-10-14T11:12:11.679Z,151
2022-10-14T11:17:34.563Z,162.9
2022-10-14T11:22:57.577Z,142.1
2022-10-14T11:28:20.424Z,145.1
2022-10-14T11:33:50.559Z,182.2
2022-10-14T11:39:13.445Z,193
2022-10-14T11:44:43.476Z,189.6
2022-10-14T11:50:05.965Z,198.2
2022-10-14T11:55:50.115Z,171.8
2022-10-14T12:01:12.590Z,198.3
2022-10-14T12:06:35.110Z,224.2
2022-10-14T12:12:00.880Z,237.9
2022-10-14T12:17:33.347Z,219.3
2022-10-14T12:22:56.364Z,193.3
2022-10-14T12:28:20.048Z,192.1
2022-10-14T12:39:04.886Z,164.5
2022-10-14T12:44:29.858Z,242.5
2022-10-14T12:49:52.682Z,244.1
2022-10-14T13:00:31.814Z,233.1
2022-10-14T13:05:54.194Z,232.6
2022-10-14T13:11:16.647Z,274.4
2022-10-14T13:16:39.452Z,294
2022-10-14T13:22:02.357Z,214.1
2022-10-14T13:27:27.815Z,321.7
2022-10-14T13:32:53.392Z,245.3
2022-10-14T13:38:15.644Z,290.9
2022-10-14T13:43:38.620Z,342.5
2022-10-14T13:49:08.849Z,412.9
2022-10-14T13:54:31.271Z,373.3
2022-10-14T14:00:42.669Z,355.2
2022-10-14T14:06:05.897Z,402.8
2022-10-14T14:11:28.285Z,331.2
2022-10-14T14:17:00.622Z,365.1
2022-10-14T14:22:23.391Z,367.6
2022-10-14T14:27:45.751Z,305.5
2022-10-14T14:38:30.478Z,275
2022-10-14T14:44:24.956Z,269.4
2022-10-14T14:50:06.269Z,233.2
2022-10-14T14:55:52.841Z,211
2022-10-14T15:06:51.957Z,180.4
2022-10-14T15:12:18.522Z,160.6
2022-10-14T15:17:42.122Z,126.3
2022-10-14T15:23:04.363Z,124.4
2022-10-14T15:28:29.480Z,111.6
2022-10-14T15:33:52.404Z,92
2022-10-14T15:39:23.405Z,104.1
2022-10-14T15:44:45.962Z,98.9
2022-10-14T15:50:08.363Z,96
2022-10-14T15:55:38.300Z,77.7
2022-10-14T16:01:00.741Z,58.9
2022-10-14T16:06:23.421Z,52.7
2022-10-14T16:12:03.271Z,51.9
2022-10-14T16:17:26.149Z,46.1
2022-10-14T16:22:49.175Z,32.5
2022-10-14T16:28:11.522Z,19.2
2022-10-14T16:33:34.108Z,15.3
2022-10-14T16:41:37.356Z,12
2022-10-14T16:47:00.500Z,0
2022-10-14T16:52:23.537Z,0
2022-10-14T16:57:46.854Z,1
2022-10-14T17:03:09.072Z,0
2022-10-14T17:08:34.259Z,0
2022-10-14T17:13:57.490Z,0
2022-10-14T17:19:19.867Z,0
2022-10-14T17:24:50.061Z,0
2022-10-14T17:32:51.028Z,0
2022-10-14T17:38:14.328Z,0
2022-10-14T17:43:38.986Z,0
2022-10-14T17:49:02.211Z,0
2022-10-14T17:54:27.410Z,0
2022-10-14T17:59:49.936Z,0
2022-10-14T18:05:15.058Z,0
2022-10-14T18:10:40.792Z,0
2022-10-14T18:16:05.706Z,0
2022-10-14T18:21:37.765Z,0
2022-10-14T18:27:00.313Z,0
2022-10-14T18:32:29.829Z,0
2022-10-14T18:37:52.716Z,0
2022-10-14T18:43:15.180Z,0
2022-10-14T18:48:40.119Z,0
2022-10-14T18:54:05.183Z,0
2022-10-14T18:59:27.528Z,0
2022-10-14T19:04:49.901Z,0
2022-10-14T19:10:12.459Z,0
2022-10-14T19:15:34.765Z,0
2022-10-14T19:20:57.327Z,0
2022-10-14T19:26:19.870Z,0
2022-10-14T19:31:42.488Z,0
2022-10-14T19:37:08.189Z,0
2022-10-14T19:47:59.419Z,0
2022-10-14T19:53:22.407Z,0
2022-10-14T19:58:45.414Z,0
2022-10-14T20:04:07.844Z,0
2022-10-14T20:09:30.515Z,0
2022-10-14T20:14:55.110Z,0
2022-10-14T20:20:17.448Z,0
2022-10-14T20:25:40.064Z,0
2022-10-14T20:36:44.093Z,0
2022-10-14T20:42:06.645Z,0
2022-10-14T20:47:29.149Z,0
2022-10-14T20:52:51.957Z,0
2022-10-14T20:58:38.181Z,0
2022-10-14T21:04:00.550Z,0
2022-10-14T21:09:27.645Z,0
2022-10-14T21:14:50.145Z,0
2022-10-14T21:20:12.829Z,0
2022-10-14T21:25:35.123Z,0
2022-10-14T21:30:57.629Z,0
2022-10-14T21:36:20.037Z,0
2022-10-14T21:41:56.283Z,0
2022-10-14T21:47:21.910Z,0
2022-10-14T21:52:44.432Z,0
2022-10-14T21:58:06.833Z,0
2022-10-14T22:03:29.282Z,0
2022-10-14T22:08:51.682Z,0
2022-10-14T22:14:17.211Z,0
2022-10-14T22:19:48.765Z,0
2022-10-14T22:25:14.648Z,0
2022-10-14T22:30:37.069Z,0
2022-10-14T22:36:02.149Z,0
2022-10-14T22:41:24.876Z,0
2022-10-14T22:52:10.303Z,0
2022-10-14T22:57:34.414Z,0
2022-10-14T23:03:20.089Z,0
2022-10-14T23:08:42.979Z,0
2022-10-14T23:14:07.702Z,0
2022-10-14T23:19:40.441Z,0
2022-10-14T23:25:05.930Z,0
2022-10-14T23:31:08.900Z,0
2022-10-14T23:36:32.060Z,0
2022-10-14T23:41:55.130Z,0
2022-10-14T23:47:19.106Z,0
2022-10-14T23:52:41.705Z,0
2022-10-14T23:58:10.303Z,0
